Time;durP1;ratioP1;P1;durP2;ratioP2;P2;SDS_P1;SDS_P2;PMS_P1;PMS_P2;Temp;Humidity;BMP_temperature;BMP_pressure;BME280_temperature;BME280_humidity;BME280_pressure;Samples;Min_cycle;Max_cycle;Signal;HPM_P1;HPM_P2
2022/08/26 00:01:22;;;;;;;8.63;4.32;;;;;;;17.45;76.13;97049.50;5045076;28;20044;-59
2022/08/26 00:03:55;;;;;;;6.53;4.45;;;;;;;17.44;76.24;97059.66;5046324;28;20040;-59
2022/08/26 00:06:21;;;;;;;6.20;4.47;;;;;;;17.39;76.62;97049.59;5045950;28;20126;-58
2022/08/26 00:08:48;;;;;;;7.15;4.63;;;;;;;17.47;76.08;97050.81;5046120;28;20041;-58
2022/08/26 00:11:15;;;;;;;5.57;4.25;;;;;;;17.55;75.70;97041.09;5046231;28;20049;-58
2022/08/26 00:13:56;;;;;;;7.00;4.40;;;;;;;17.63;75.29;97042.28;5045918;28;20067;-59
2022/08/26 00:16:25;;;;;;;6.32;4.50;;;;;;;17.69;75.37;97046.53;5052746;28;20084;-58
2022/08/26 00:18:53;;;;;;;6.28;4.43;;;;;;;17.71;75.33;97038.00;5045897;28;20187;-59
2022/08/26 00:21:19;;;;;;;6.55;4.63;;;;;;;17.76;74.86;97043.41;5045848;28;20059;-58
2022/08/26 00:23:47;;;;;;;7.50;4.40;;;;;;;17.77;74.66;97051.28;5054634;28;20416;-58
2022/08/26 00:26:14;;;;;;;6.78;4.82;;;;;;;17.80;74.67;97042.44;5065835;28;20511;-57
2022/08/26 00:28:41;;;;;;;7.57;4.50;;;;;;;17.80;74.38;97045.19;5051579;28;20126;-59
2022/08/26 00:31:08;;;;;;;6.78;5.15;;;;;;;17.81;74.18;97035.84;5045870;28;20036;-58
2022/08/26 00:33:38;;;;;;;7.63;4.88;;;;;;;17.76;74.81;97044.19;5046540;28;20045;-59
2022/08/26 00:36:05;;;;;;;6.32;4.80;;;;;;;17.64;75.01;97032.94;5046227;28;20044;-59
2022/08/26 00:38:33;;;;;;;5.90;4.25;;;;;;;17.60;75.39;97038.25;5045660;28;20183;-57
2022/08/26 00:41:04;;;;;;;8.15;5.10;;;;;;;17.40;76.40;97036.75;5043670;28;20083;-59
2022/08/26 00:43:33;;;;;;;6.35;4.70;;;;;;;17.20;77.52;97041.50;5045551;28;20044;-59
2022/08/26 00:46:15;;;;;;;5.93;4.95;;;;;;;17.16;77.84;97035.84;5059429;28;20066;-59
2022/08/26 00:48:45;;;;;;;7.22;4.93;;;;;;;17.17;77.81;97042.09;5045044;28;20555;-59
2022/08/26 00:51:18;;;;;;;7.82;5.20;;;;;;;17.15;77.92;97034.19;5044807;28;20061;-59
2022/08/26 00:53:50;;;;;;;7.38;5.13;;;;;;;17.13;78.20;97035.59;5053677;28;20048;-59
2022/08/26 00:56:45;;;;;;;8.32;4.45;;;;;;;17.21;77.75;97037.63;5044747;28;20664;-59
2022/08/26 00:59:15;;;;;;;6.00;4.55;;;;;;;17.28;77.16;97037.22;5043318;28;20053;-59
2022/08/26 01:01:43;;;;;;;8.00;5.05;;;;;;;17.24;77.64;97041.69;5045178;28;20516;-58
2022/08/26 01:04:14;;;;;;;7.63;5.13;;;;;;;17.26;77.20;97039.47;5045096;28;20052;-58
2022/08/26 01:06:41;;;;;;;5.93;4.55;;;;;;;17.19;77.46;97045.34;5044717;28;20049;-58
2022/08/26 01:09:10;;;;;;;6.13;4.45;;;;;;;17.19;77.40;97039.06;5044686;28;20041;-59
2022/08/26 01:11:37;;;;;;;7.20;4.78;;;;;;;17.21;77.35;97037.63;5045405;28;20045;-59
2022/08/26 01:14:06;;;;;;;10.48;6.05;;;;;;;17.13;77.83;97039.16;5032084;28;20091;-59
2022/08/26 01:16:34;;;;;;;6.35;4.47;;;;;;;17.26;77.01;97042.22;5044180;28;20056;-58
2022/08/26 01:19:09;;;;;;;7.32;4.70;;;;;;;17.35;76.43;97036.81;5045831;28;20040;-57
2022/08/26 01:21:43;;;;;;;6.28;4.68;;;;;;;17.32;76.50;97038.25;5044885;28;20048;-58
2022/08/26 01:24:10;;;;;;;6.25;4.45;;;;;;;17.33;76.50;97036.34;5054534;28;20078;-58
2022/08/26 01:26:42;;;;;;;6.00;4.75;;;;;;;17.37;76.24;97038.16;5044880;28;20485;-57
2022/08/26 01:29:14;;;;;;;7.85;5.05;;;;;;;17.28;76.99;97038.06;5045553;28;20079;-58
2022/08/26 01:31:48;;;;;;;6.78;4.72;;;;;;;17.28;76.80;97038.06;5045777;28;20512;-59
2022/08/26 01:34:22;;;;;;;10.48;5.22;;;;;;;17.29;77.07;97038.88;5041860;28;20132;-58
2022/08/26 01:36:55;;;;;;;6.78;4.57;;;;;;;17.34;76.65;97038.78;5044484;28;20467;-58
2022/08/26 01:39:22;;;;;;;8.30;4.80;;;;;;;17.40;76.38;97039.47;5044479;28;20561;-58
2022/08/26 01:41:53;;;;;;;6.72;4.13;;;;;;;17.50;75.54;97036.53;5044351;28;20064;-59
2022/08/26 01:44:24;;;;;;;7.20;4.40;;;;;;;17.53;75.16;97038.66;5042223;28;20087;-58
2022/08/26 01:46:53;;;;;;;7.15;4.60;;;;;;;17.61;74.84;97039.84;5040526;28;20048;-59
2022/08/26 01:49:22;;;;;;;7.32;4.07;;;;;;;17.57;75.15;97038.84;5043067;28;20086;-59
2022/08/26 01:51:54;;;;;;;6.90;4.45;;;;;;;17.42;76.07;97042.72;5044504;28;20087;-58
2022/08/26 01:54:22;;;;;;;6.88;4.60;;;;;;;17.29;76.52;97036.13;5052582;28;20041;-59
2022/08/26 01:56:51;;;;;;;8.52;4.93;;;;;;;17.36;76.21;97044.72;5044856;28;20041;-59
2022/08/26 01:59:19;;;;;;;6.53;5.00;;;;;;;17.39;76.13;97048.78;5044617;28;20045;-59
2022/08/26 02:01:47;;;;;;;6.18;4.55;;;;;;;17.44;76.04;97048.69;5043609;28;20124;-59
2022/08/26 02:04:20;;;;;;;9.40;4.47;;;;;;;17.40;75.90;97045.75;5044274;28;20045;-57
2022/08/26 02:06:47;;;;;;;5.90;4.45;;;;;;;17.36;76.39;97054.88;5047051;28;20049;-59
2022/08/26 02:09:15;;;;;;;9.55;4.50;;;;;;;17.55;75.55;97049.31;5048313;28;20083;-59
2022/08/26 02:11:42;;;;;;;6.07;4.72;;;;;;;17.29;76.58;97052.56;5047933;28;20045;-58
2022/08/26 02:14:12;;;;;;;6.75;4.57;;;;;;;17.27;76.71;97050.13;5048481;28;20045;-58
2022/08/26 02:16:41;;;;;;;6.20;4.63;;;;;;;17.20;76.94;97052.44;5061533;28;20560;-58
2022/08/26 02:19:13;;;;;;;9.07;4.97;;;;;;;17.35;76.44;97058.72;5048098;28;20041;-59
2022/08/26 02:21:44;;;;;;;8.07;4.72;;;;;;;17.48;75.46;97057.91;5044435;28;20143;-58
2022/08/26 02:24:20;;;;;;;6.85;4.57;;;;;;;17.55;75.16;97058.31;5048165;28;20120;-58
2022/08/26 02:26:47;;;;;;;6.75;4.47;;;;;;;17.40;75.61;97053.94;5048323;28;20551;-58
2022/08/26 02:29:25;;;;;;;7.95;4.80;;;;;;;17.05;77.48;97056.28;5047498;28;20099;-58
2022/08/26 02:31:54;;;;;;;7.32;4.97;;;;;;;16.92;77.82;97054.31;5048119;28;20627;-58
2022/08/26 02:34:26;;;;;;;7.82;5.43;;;;;;;16.75;79.17;97048.31;5046675;28;20065;-58
2022/08/26 02:37:00;;;;;;;7.80;4.95;;;;;;;16.57;79.72;97051.88;5047371;28;20549;-58
2022/08/26 02:39:28;;;;;;;7.30;5.25;;;;;;;16.35;81.03;97045.16;5048256;28;20132;-58
2022/08/26 02:41:55;;;;;;;6.28;5.00;;;;;;;16.17;81.50;97044.88;5047790;28;20309;-57
2022/08/26 02:44:21;;;;;;;10.27;5.35;;;;;;;16.07;82.40;97037.63;5047365;28;20037;-58
2022/08/26 02:46:48;;;;;;;8.27;5.22;;;;;;;16.11;82.39;97041.41;5049838;28;20389;-57
2022/08/26 02:49:15;;;;;;;7.40;4.97;;;;;;;16.14;82.41;97045.47;5047375;28;20069;-59
2022/08/26 02:51:42;;;;;;;6.68;5.45;;;;;;;16.28;81.79;97042.00;5047943;28;20052;-58
2022/08/26 02:54:09;;;;;;;6.78;5.18;;;;;;;16.41;81.41;97045.88;5047784;28;20037;-59
2022/08/26 02:56:36;;;;;;;7.72;6.00;;;;;;;16.46;80.63;97034.84;5047183;28;20393;-58
2022/08/26 02:59:02;;;;;;;6.60;5.35;;;;;;;16.51;80.47;97037.50;5048131;28;20420;-58
2022/08/26 03:01:32;;;;;;;7.07;5.47;;;;;;;16.61;79.87;97039.25;5047302;28;20496;-58
2022/08/26 03:04:01;;;;;;;7.18;4.95;;;;;;;16.69;79.58;97030.38;5047509;28;20041;-59
2022/08/26 03:06:28;;;;;;;8.88;5.72;;;;;;;16.60;79.73;97035.72;5047172;28;20037;-58
2022/08/26 03:08:55;;;;;;;7.60;5.13;;;;;;;16.33;81.26;97037.25;5046642;28;20045;-59
2022/08/26 03:11:22;;;;;;;7.22;5.20;;;;;;;16.21;81.82;97037.72;5047350;28;20049;-59
2022/08/26 03:13:50;;;;;;;9.23;5.50;;;;;;;16.17;82.54;97027.66;5046998;28;20045;-59
2022/08/26 03:16:17;;;;;;;6.45;5.25;;;;;;;16.16;82.55;97032.34;5047948;28;20087;-58
2022/08/26 03:18:44;;;;;;;7.53;5.63;;;;;;;16.18;82.88;97030.09;5046448;28;20309;-59
2022/08/26 03:21:19;;;;;;;8.95;5.30;;;;;;;16.18;82.46;97027.38;5046652;28;20477;-59
2022/08/26 03:23:46;;;;;;;9.07;4.97;;;;;;;16.33;81.45;97029.03;5055875;28;20292;-59
2022/08/26 03:26:14;;;;;;;6.40;4.63;;;;;;;16.44;80.85;97023.44;5056241;28;20484;-58
2022/08/26 03:31:28;;;;;;;8.80;5.88;;;;;;;16.70;79.43;97031.97;5046834;28;20040;-58
2022/08/26 03:33:54;;;;;;;7.18;5.35;;;;;;;16.88;78.55;97029.50;5046705;28;20045;-59
2022/08/26 03:36:25;;;;;;;6.97;4.82;;;;;;;16.94;78.11;97027.47;5047090;28;20314;-58
2022/08/26 03:38:52;;;;;;;6.60;4.45;;;;;;;16.96;77.82;97027.97;5046957;28;20055;-58
2022/08/26 03:41:20;;;;;;;7.47;4.80;;;;;;;16.95;78.21;97031.84;5047397;28;20079;-58
2022/08/26 03:43:49;;;;;;;5.85;4.60;;;;;;;16.93;78.10;97029.41;5047195;28;20476;-57
2022/08/26 03:46:17;;;;;;;6.00;4.97;;;;;;;16.87;78.42;97034.16;5061711;28;20069;-58
2022/08/26 03:48:44;;;;;;;7.18;4.90;;;;;;;16.83;78.47;97027.66;5067190;28;20040;-58
2022/08/26 03:51:17;;;;;;;7.55;5.10;;;;;;;16.80;78.69;97027.47;5066664;28;20098;-58
2022/08/26 03:53:45;;;;;;;7.70;4.60;;;;;;;16.68;79.20;97026.00;5060708;28;20074;-59
2022/08/26 03:56:11;;;;;;;7.70;4.70;;;;;;;16.73;79.30;97023.19;5066947;28;19920;-57
2022/08/26 03:58:38;;;;;;;7.13;4.35;;;;;;;16.77;78.97;97024.19;5067304;28;20385;-59
2022/08/26 04:01:12;;;;;;;7.57;4.97;;;;;;;16.90;78.45;97033.56;5066849;28;20044;-58
2022/08/26 04:03:56;;;;;;;8.45;4.90;;;;;;;16.77;79.04;97032.41;5061289;28;20100;-59
2022/08/26 04:06:28;;;;;;;8.18;5.10;;;;;;;16.88;78.23;97030.28;5047449;28;20064;-59
2022/08/26 04:08:56;;;;;;;7.65;5.10;;;;;;;16.92;78.02;97026.97;5046286;28;20051;-59
2022/08/26 04:11:30;;;;;;;6.93;4.97;;;;;;;16.89;78.28;97025.66;5046567;28;20474;-59
2022/08/26 04:14:03;;;;;;;7.00;5.10;;;;;;;16.70;79.07;97026.50;5046604;28;20325;-58
2022/08/26 04:16:29;;;;;;;7.50;4.80;;;;;;;16.60;79.37;97026.69;5054007;28;20048;-59
2022/08/26 04:18:57;;;;;;;7.70;5.07;;;;;;;16.75;78.68;97022.88;5046527;28;20079;-58
2022/08/26 04:21:25;;;;;;;7.32;5.28;;;;;;;16.71;78.98;97024.59;5046313;28;20044;-59
2022/08/26 04:23:52;;;;;;;6.78;5.82;;;;;;;16.67;79.38;97029.88;5045561;28;20347;-58
2022/08/26 04:26:21;;;;;;;8.50;5.10;;;;;;;16.61;79.58;97025.59;5043566;28;20453;-59
2022/08/26 04:28:50;;;;;;;8.25;5.53;;;;;;;16.51;80.00;97024.66;5042351;28;20123;-59
2022/08/26 04:31:17;;;;;;;7.32;4.95;;;;;;;16.47;79.75;97026.38;5043563;28;20053;-58
2022/08/26 04:33:46;;;;;;;7.53;5.60;;;;;;;16.37;80.21;97021.09;5042605;28;20049;-58
2022/08/26 04:36:16;;;;;;;8.95;6.18;;;;;;;16.25;80.88;97022.34;5038839;28;20048;-59
2022/08/26 04:38:45;;;;;;;7.07;5.22;;;;;;;16.36;80.75;97024.91;5042644;28;20051;-59
2022/08/26 04:41:12;;;;;;;7.57;5.03;;;;;;;16.42;80.50;97022.91;5043962;28;20056;-58
2022/08/26 04:43:43;;;;;;;7.10;5.00;;;;;;;16.55;79.90;97021.34;5044409;28;20124;-58
2022/08/26 04:46:12;;;;;;;6.20;4.93;;;;;;;16.58;79.95;97024.25;5046476;28;20040;-58
2022/08/26 04:48:39;;;;;;;8.27;5.07;;;;;;;16.34;80.84;97025.22;5043890;28;20110;-57
2022/08/26 04:51:08;;;;;;;6.00;4.90;;;;;;;16.19;81.54;97023.56;5043185;28;20041;-58
2022/08/26 04:53:35;;;;;;;7.80;5.05;;;;;;;16.28;80.94;97031.06;5044180;28;20048;-57
2022/08/26 04:56:03;;;;;;;6.38;5.10;;;;;;;15.99;82.86;97028.22;5043458;28;20037;-58
2022/08/26 04:58:30;;;;;;;7.88;5.35;;;;;;;15.84;83.84;97026.47;5040107;28;20067;-58
2022/08/26 05:00:57;;;;;;;6.30;5.22;;;;;;;15.83;84.16;97024.03;5043973;28;20037;-58
2022/08/26 05:03:26;;;;;;;9.55;5.28;;;;;;;15.82;84.69;97027.88;5043852;28;20110;-58
2022/08/26 05:05:56;;;;;;;8.27;6.30;;;;;;;15.79;84.66;97033.94;5043233;28;20571;-58
2022/08/26 05:08:23;;;;;;;6.97;5.07;;;;;;;15.83;84.78;97035.78;5043987;28;20045;-59
2022/08/26 05:10:55;;;;;;;8.02;5.80;;;;;;;15.98;84.34;97031.22;5042891;28;20041;-59
2022/08/26 05:13:26;;;;;;;9.43;6.00;;;;;;;16.10;83.54;97037.06;5044134;28;20045;-58
2022/08/26 05:15:53;;;;;;;7.80;5.73;;;;;;;16.24;82.75;97041.75;5043382;28;20049;-59
2022/08/26 05:18:26;;;;;;;10.93;5.78;;;;;;;16.36;82.34;97039.38;5043878;28;20814;-59
2022/08/26 05:20:53;;;;;;;8.15;6.05;;;;;;;16.33;82.54;97037.25;5043708;28;20048;-59
2022/08/26 05:23:22;;;;;;;7.53;5.80;;;;;;;16.36;82.45;97035.81;5043774;28;20052;-57
2022/08/26 05:25:51;;;;;;;10.80;5.85;;;;;;;16.48;82.24;97033.44;5043342;28;20052;-59
2022/08/26 05:28:24;;;;;;;7.57;5.78;;;;;;;16.57;82.04;97043.69;5042938;28;20479;-59
2022/08/26 05:30:52;;;;;;;7.18;5.75;;;;;;;16.66;81.48;97044.63;5042311;28;20095;-59
2022/08/26 05:33:19;;;;;;;6.57;4.82;;;;;;;16.86;80.09;97045.38;5043885;28;20048;-59
2022/08/26 05:35:46;;;;;;;7.95;5.05;;;;;;;17.02;79.05;97046.72;5043156;28;20504;-58
2022/08/26 05:38:17;;;;;;;7.00;5.00;;;;;;;17.22;78.35;97043.94;5042675;28;20095;-58
2022/08/26 05:40:47;;;;;;;8.13;5.20;;;;;;;17.33;77.60;97039.06;5035753;28;20052;-57
2022/08/26 05:43:18;;;;;;;8.10;5.28;;;;;;;17.35;77.69;97045.03;5047090;28;20045;-59
2022/08/26 05:45:48;;;;;;;8.45;5.53;;;;;;;17.27;78.35;97050.13;5046842;28;20098;-59
2022/08/26 05:48:19;;;;;;;7.85;5.43;;;;;;;17.41;77.49;97055.59;5047049;28;20048;-59
2022/08/26 05:50:51;;;;;;;6.50;5.10;;;;;;;17.48;76.78;97057.91;5047064;28;20528;-57
2022/08/26 05:53:20;;;;;;;6.18;5.00;;;;;;;17.39;77.99;97057.00;5048335;28;20550;-57
2022/08/26 05:55:49;;;;;;;7.40;5.28;;;;;;;17.32;78.28;97060.13;5045753;28;20052;-58
2022/08/26 05:58:21;;;;;;;6.90;5.00;;;;;;;17.37;77.90;97065.53;5046889;28;20412;-58
2022/08/26 06:01:04;;;;;;;;;;;;;;;17.34;78.16;97068.88;5044668;28;20045;-58
2022/08/26 06:03:34;;;;;;;6.25;5.10;;;;;;;17.35;78.23;97067.75;5040011;28;20016;-57
2022/08/26 06:06:07;;;;;;;7.25;5.50;;;;;;;17.42;78.12;97072.81;5040795;28;20333;-58
2022/08/26 06:08:36;;;;;;;9.15;5.18;;;;;;;17.39;78.06;97071.50;5036108;28;20126;-59
2022/08/26 06:11:06;;;;;;;6.95;5.00;;;;;;;17.47;77.83;97074.66;5045789;28;20044;-59
2022/08/26 06:13:39;;;;;;;10.10;5.43;;;;;;;17.58;77.38;97061.56;5044353;28;20514;-59
2022/08/26 06:16:11;;;;;;;7.07;5.70;;;;;;;17.78;76.61;97063.03;5049057;28;20052;-59
2022/08/26 06:18:41;;;;;;;8.13;5.47;;;;;;;17.95;75.88;97065.16;5044926;28;20049;-58
2022/08/26 06:21:15;;;;;;;8.27;5.20;;;;;;;18.14;75.77;97069.69;5045384;28;20037;-57
2022/08/26 06:26:29;;;;;;;5.88;4.43;;;;;;;18.47;74.74;97064.00;5046110;28;20098;-57
2022/08/26 06:28:56;;;;;;;6.82;5.28;;;;;;;18.57;74.35;97071.13;5047347;28;20114;-58
2022/08/26 06:31:24;;;;;;;8.23;4.80;;;;;;;18.69;74.08;97065.91;5041469;28;20068;-58
2022/08/26 06:33:51;;;;;;;7.45;5.43;;;;;;;18.85;73.08;97073.75;5037352;28;20060;-59
2022/08/26 06:36:21;;;;;;;6.30;4.95;;;;;;;19.02;72.63;97070.28;5040831;28;20079;-57
2022/08/26 06:38:50;;;;;;;7.95;5.30;;;;;;;19.20;72.29;97067.66;5048475;28;20052;-59
2022/08/26 06:41:19;;;;;;;6.95;5.35;;;;;;;19.36;71.64;97073.53;5048758;28;20094;-60
2022/08/26 06:43:47;;;;;;;7.57;4.72;;;;;;;19.52;71.25;97079.41;5048354;28;20409;-59
2022/08/26 06:46:16;;;;;;;5.75;4.10;;;;;;;19.65;70.50;97076.84;5046528;28;20091;-59
2022/08/26 06:48:43;;;;;;;9.10;4.78;;;;;;;19.86;69.71;97075.13;5041132;28;20064;-58
2022/08/26 06:51:12;;;;;;;7.10;4.03;;;;;;;20.01;69.63;97073.88;5043927;28;20428;-59
2022/08/26 06:53:42;;;;;;;9.73;4.53;;;;;;;20.21;68.82;97076.31;5038597;28;20045;-59
2022/08/26 06:56:09;;;;;;;5.55;3.50;;;;;;;20.35;68.63;97078.91;5039865;28;20084;-60
2022/08/26 06:58:37;;;;;;;8.52;4.22;;;;;;;20.48;67.65;97080.69;5041275;28;20463;-59
2022/08/26 07:01:15;;;;;;;7.25;3.95;;;;;;;20.69;67.20;97074.50;5059353;28;20048;-59
2022/08/26 07:03:44;;;;;;;6.63;3.95;;;;;;;20.84;66.76;97084.19;5068129;28;20052;-59
2022/08/26 07:06:12;;;;;;;4.93;3.60;;;;;;;20.98;66.08;97083.22;5057670;28;20107;-59
2022/08/26 07:08:39;;;;;;;6.95;4.50;;;;;;;21.15;65.69;97085.91;5048257;28;20049;-59
2022/08/26 07:11:08;;;;;;;7.63;3.55;;;;;;;21.31;64.47;97085.38;5048467;28;20496;-59
2022/08/26 07:13:36;;;;;;;7.82;3.88;;;;;;;21.48;63.08;97092.75;5048122;28;20102;-60
2022/08/26 07:16:05;;;;;;;5.25;3.42;;;;;;;21.59;62.45;97090.44;5060162;28;20443;-59
2022/08/26 07:18:34;;;;;;;8.95;3.67;;;;;;;21.74;62.06;97088.31;5052104;28;20460;-59
2022/08/26 07:21:04;;;;;;;6.13;3.72;;;;;;;21.96;61.97;97090.75;5036085;28;20429;-59
2022/08/26 07:23:33;;;;;;;4.90;3.50;;;;;;;22.21;60.43;97090.91;5037848;28;20068;-59
2022/08/26 07:26:04;;;;;;;6.47;3.78;;;;;;;22.37;59.97;97092.25;5039977;28;20048;-58
2022/08/26 07:28:31;;;;;;;;;;;;;;;22.48;59.77;97094.25;5042638;28;20041;-60
2022/08/26 07:30:58;;;;;;;5.25;3.85;;;;;;;22.61;58.76;97099.84;5036086;28;19921;-60
2022/08/26 07:33:24;;;;;;;8.05;3.72;;;;;;;22.79;58.08;97094.19;5039494;28;20113;-60
2022/08/26 07:35:51;;;;;;;5.25;3.53;;;;;;;22.89;57.94;97085.47;5040259;28;20041;-60
2022/08/26 07:38:17;;;;;;;4.82;3.70;;;;;;;22.87;57.64;97087.75;5039108;28;20056;-58
2022/08/26 07:40:44;;;;;;;6.05;3.72;;;;;;;22.95;57.63;97092.38;5038652;28;20042;-62
2022/08/26 07:43:10;;;;;;;5.45;3.30;;;;;;;23.07;57.29;97096.34;5039088;28;20505;-63
2022/08/26 07:45:37;;;;;;;10.98;4.15;;;;;;;23.21;56.66;97093.25;5043595;28;20500;-62
2022/08/26 07:48:04;;;;;;;6.15;3.25;;;;;;;23.28;55.60;97087.19;5041701;28;20044;-62
2022/08/26 07:50:31;;;;;;;5.25;3.75;;;;;;;23.35;55.66;97091.00;5039152;28;20048;-62
2022/08/26 07:53:16;;;;;;;6.07;3.53;;;;;;;23.50;55.44;97095.03;5041359;28;20048;-63
2022/08/26 07:55:45;;;;;;;4.68;3.45;;;;;;;23.63;55.62;97089.53;5040056;28;20389;-62
2022/08/26 07:58:12;;;;;;;6.20;3.42;;;;;;;23.77;55.11;97089.19;5040126;28;20489;-62
2022/08/26 08:00:38;;;;;;;6.65;3.58;;;;;;;23.83;54.57;97085.00;5038008;28;20029;-63
2022/08/26 08:03:07;;;;;;;5.32;3.67;;;;;;;23.86;53.65;97092.63;5042041;28;20458;-62
2022/08/26 08:05:35;;;;;;;5.53;3.25;;;;;;;23.87;53.92;97083.16;5037557;28;20045;-62
2022/08/26 08:08:05;;;;;;;10.13;4.32;;;;;;;23.90;54.44;97087.19;5032422;28;20103;-63
2022/08/26 08:10:51;;;;;;;9.13;3.42;;;;;;;23.97;54.08;97087.44;5026685;28;20103;-63
2022/08/26 08:13:18;;;;;;;5.80;3.88;;;;;;;23.99;53.34;97084.31;5026723;28;20056;-62
2022/08/26 08:15:45;;;;;;;5.60;3.75;;;;;;;24.11;53.46;97086.28;5048496;28;20488;-63
2022/08/26 08:18:15;;;;;;;5.07;3.47;;;;;;;24.18;53.29;97082.91;5066850;28;20511;-63
2022/08/26 08:20:42;;;;;;;7.50;4.00;;;;;;;24.29;53.10;97089.59;5051086;28;20060;-62
2022/08/26 08:23:24;;;;;;;6.93;3.55;;;;;;;24.39;52.82;97079.97;5045878;28;20045;-62
2022/08/26 08:26:00;;;;;;;6.20;3.70;;;;;;;24.61;53.23;97086.91;5046685;28;20048;-63
2022/08/26 08:28:27;;;;;;;9.50;4.35;;;;;;;24.91;51.29;97096.88;5046250;28;20048;-63
2022/08/26 08:30:55;;;;;;;8.82;3.92;;;;;;;24.93;51.06;97089.00;5055675;28;20494;-62
2022/08/26 08:33:21;;;;;;;7.10;4.20;;;;;;;24.90;51.14;97089.69;5065947;28;20795;-62
2022/08/26 08:35:48;;;;;;;6.05;4.00;;;;;;;24.98;51.57;97094.28;5065869;28;20048;-62
2022/08/26 08:38:15;;;;;;;7.20;4.35;;;;;;;25.15;51.40;97093.16;5045743;28;20045;-62
2022/08/26 08:40:44;;;;;;;7.72;4.22;;;;;;;25.28;50.63;97091.09;5046139;28;20092;-62
2022/08/26 08:43:16;;;;;;;11.13;4.13;;;;;;;25.32;50.47;97085.66;5046695;28;20513;-62
2022/08/26 08:45:56;;;;;;;7.03;4.18;;;;;;;25.43;50.15;97097.00;5055768;28;20044;-62
2022/08/26 08:48:28;;;;;;;6.80;3.92;;;;;;;25.60;50.12;97093.09;5066247;28;20492;-62
2022/08/26 08:51:03;;;;;;;8.50;3.85;;;;;;;25.70;49.97;97097.28;5066656;28;20039;-62
2022/08/26 08:53:37;;;;;;;10.20;3.97;;;;;;;25.69;49.44;97092.91;5051261;28;20118;-62
2022/08/26 08:56:30;;;;;;;6.40;3.97;;;;;;;25.87;49.70;97098.84;5046473;28;20102;-62
2022/08/26 08:59:17;;;;;;;;;;;;;;;26.02;48.38;97100.00;5046389;28;20091;-62
2022/08/26 09:02:19;;;;;;;6.78;4.10;;;;;;;25.94;49.15;97087.16;5061975;28;19929;-63
2022/08/26 09:05:04;;;;;;;9.35;3.90;;;;;;;26.05;48.67;97092.94;5066156;28;20463;-62
2022/08/26 09:07:36;;;;;;;5.63;3.67;;;;;;;26.08;48.74;97086.66;5026158;28;20053;-62
2022/08/26 09:10:11;;;;;;;7.30;4.13;;;;;;;26.34;47.76;97085.25;5026345;28;20480;-62
2022/08/26 09:12:37;;;;;;;6.22;4.03;;;;;;;26.48;47.99;97076.44;5026041;28;20547;-62
2022/08/26 09:15:13;;;;;;;7.63;4.43;;;;;;;26.60;47.71;97078.25;5036735;28;20040;-62
2022/08/26 09:18:08;;;;;;;7.63;4.55;;;;;;;26.55;47.18;97079.34;5068955;28;20041;-63
2022/08/26 09:20:42;;;;;;;8.93;4.45;;;;;;;26.62;46.90;97076.72;5070549;28;20500;-62
2022/08/26 09:23:11;;;;;;;9.27;4.30;;;;;;;26.72;47.02;97075.31;5070115;28;20248;-62
2022/08/26 09:25:56;;;;;;;9.85;4.70;;;;;;;26.95;47.05;97071.81;5070030;28;20044;-62
2022/08/26 09:28:26;;;;;;;8.55;4.38;;;;;;;26.95;46.47;97084.91;5058462;28;20052;-62
2022/08/26 09:31:18;;;;;;;7.00;4.43;;;;;;;26.93;46.28;97078.88;5045116;28;20041;-62
2022/08/26 09:33:44;;;;;;;8.68;4.45;;;;;;;26.87;46.95;97078.38;5040266;28;20037;-62
2022/08/26 09:36:43;;;;;;;9.00;4.78;;;;;;;26.88;46.09;97072.47;5042911;28;20041;-62
2022/08/26 09:39:24;;;;;;;7.80;4.72;;;;;;;26.97;46.67;97069.47;5039619;28;20428;-62
2022/08/26 09:42:19;;;;;;;9.23;4.88;;;;;;;27.04;46.61;97068.78;5033458;28;20045;-63
2022/08/26 09:45:02;;;;;;;9.57;5.10;;;;;;;26.95;46.47;97071.00;5035663;28;20444;-62
2022/08/26 09:47:32;;;;;;;9.32;4.50;;;;;;;26.84;47.48;97066.03;5069549;28;20048;-63
2022/08/26 09:50:10;;;;;;;13.38;5.78;;;;;;;26.83;47.24;97058.84;5069942;28;20049;-62
2022/08/26 09:52:38;;;;;;;11.77;5.20;;;;;;;26.92;47.07;97052.25;5063826;28;20056;-62
2022/08/26 09:55:08;;;;;;;8.30;5.43;;;;;;;26.96;47.09;97050.38;5048825;28;20048;-62
2022/08/26 09:57:44;;;;;;;10.30;5.10;;;;;;;26.96;47.19;97042.06;5050030;28;20705;-61
2022/08/26 10:00:32;;;;;;;11.65;5.38;;;;;;;26.97;46.81;97047.25;5052165;28;20098;-62
2022/08/26 10:03:02;;;;;;;11.10;5.05;;;;;;;27.07;46.82;97034.72;5069696;28;20045;-62
2022/08/26 10:05:43;;;;;;;12.88;4.78;;;;;;;26.96;46.99;97031.75;5064704;28;20037;-62
2022/08/26 10:08:30;;;;;;;13.25;5.45;;;;;;;27.06;46.76;97026.75;5049105;28;20735;-63
2022/08/26 10:11:01;;;;;;;10.52;4.95;;;;;;;26.98;46.42;97014.72;5049514;28;20064;-63
2022/08/26 10:13:34;;;;;;;11.23;5.53;;;;;;;27.11;46.68;97009.75;5049121;28;20045;-63
2022/08/26 10:16:09;;;;;;;13.98;5.45;;;;;;;27.21;47.11;97011.13;5060713;28;20056;-62
2022/08/26 10:18:41;;;;;;;10.50;5.20;;;;;;;27.24;46.56;97010.38;5068767;28;20124;-63
2022/08/26 10:21:22;;;;;;;9.30;5.07;;;;;;;27.23;46.05;97011.56;5069141;28;20111;-63
2022/08/26 10:23:54;;;;;;;12.38;5.53;;;;;;;27.33;45.51;97008.16;5069129;28;20098;-62
2022/08/26 10:26:34;;;;;;;11.10;5.50;;;;;;;27.40;45.75;97021.34;5067897;28;20048;-63
2022/08/26 10:29:18;;;;;;;10.45;5.35;;;;;;;27.29;46.40;97012.03;5039478;28;20048;-63
2022/08/26 10:32:01;;;;;;;12.35;5.60;;;;;;;27.37;45.97;97014.56;5042278;28;20036;-62
2022/08/26 10:34:31;;;;;;;16.58;5.53;;;;;;;27.42;45.72;97013.47;5046885;28;20850;-62
2022/08/26 10:37:07;;;;;;;15.30;5.10;;;;;;;27.36;45.50;96999.06;5048074;28;20051;-63
2022/08/26 10:39:51;;;;;;;12.02;5.80;;;;;;;27.46;45.59;97000.38;5049029;28;20532;-63
2022/08/26 10:42:37;;;;;;;10.60;5.35;;;;;;;27.54;45.54;97006.88;5048635;28;20037;-63
2022/08/26 10:45:10;;;;;;;11.65;5.28;;;;;;;27.58;45.15;97002.19;5053545;28;20081;-62
2022/08/26 10:47:47;;;;;;;12.05;5.50;;;;;;;27.33;45.05;97012.91;5060437;28;20041;-63
2022/08/26 10:50:15;;;;;;;10.95;4.90;;;;;;;27.37;45.57;97005.41;5048441;28;20049;-63
2022/08/26 10:53:00;;;;;;;14.68;6.13;;;;;;;27.44;46.04;97015.84;5041114;28;20497;-63
2022/08/26 10:56:08;;;;;;;13.48;5.80;;;;;;;27.33;46.01;97015.69;5037757;28;20051;-63
2022/08/26 10:58:44;;;;;;;10.93;5.43;;;;;;;27.38;45.71;97012.59;5042241;28;20060;-63
2022/08/26 11:01:41;;;;;;;12.45;5.57;;;;;;;27.45;45.73;97003.56;5037245;28;20044;-62
2022/08/26 11:04:19;;;;;;;10.07;5.65;;;;;;;27.61;44.58;96993.13;5035924;28;20045;-62
2022/08/26 11:06:48;;;;;;;8.75;5.00;;;;;;;27.73;43.75;96989.31;5041045;28;20049;-62
2022/08/26 11:09:43;;;;;;;12.20;5.63;;;;;;;27.75;43.85;96978.59;5041383;28;20051;-63
2022/08/26 11:12:35;;;;;;;11.75;5.47;;;;;;;27.86;44.21;96975.19;5037684;28;20040;-62
2022/08/26 11:15:29;;;;;;;10.73;5.07;;;;;;;27.91;42.97;96967.31;5038014;28;20482;-63
2022/08/26 11:18:02;;;;;;;7.57;5.00;;;;;;;28.08;43.07;96972.66;5020048;28;20057;-63
2022/08/26 11:20:29;;;;;;;10.73;5.53;;;;;;;28.11;42.28;96981.06;5027427;28;20106;-63
2022/08/26 11:23:16;;;;;;;13.40;5.22;;;;;;;28.19;41.66;96973.59;5028762;28;20331;-63
2022/08/26 11:25:55;;;;;;;9.23;4.40;;;;;;;28.19;40.62;96979.16;5026620;28;20052;-62
2022/08/26 11:28:44;;;;;;;8.65;4.50;;;;;;;27.96;40.55;96968.94;5037399;28;20111;-63
2022/08/26 11:31:24;;;;;;;9.00;4.78;;;;;;;28.14;41.79;96971.94;5040873;28;20033;-63
2022/08/26 11:33:56;;;;;;;9.13;4.65;;;;;;;28.19;42.32;96962.44;5046849;28;20045;-63
2022/08/26 11:36:53;;;;;;;9.75;5.50;;;;;;;28.14;42.31;96963.59;5043082;28;20483;-62
2022/08/26 11:39:27;;;;;;;8.55;4.18;;;;;;;28.18;42.19;96961.66;5036199;28;20408;-63
2022/08/26 11:42:02;;;;;;;10.02;5.32;;;;;;;27.98;42.17;96957.44;5041482;28;20040;-63
2022/08/26 11:44:37;;;;;;;7.85;4.63;;;;;;;28.21;42.17;96951.75;5042337;28;20045;-63
2022/08/26 11:47:09;;;;;;;7.53;5.22;;;;;;;28.14;41.83;96948.88;5034724;28;20056;-63
2022/08/26 11:49:38;;;;;;;10.23;4.72;;;;;;;28.43;41.33;96936.13;5036090;28;20041;-62
2022/08/26 11:52:19;;;;;;;7.77;5.40;;;;;;;28.66;40.91;96948.25;5040982;28;20041;-62
2022/08/26 11:55:19;;;;;;;12.43;5.30;;;;;;;28.74;40.83;96938.00;5035757;28;20421;-64
2022/08/26 11:57:53;;;;;;;9.23;4.93;;;;;;;28.61;40.63;96943.03;5017077;28;20479;-63
2022/08/26 12:00:20;;;;;;;;;;;;;;;28.66;40.64;96949.06;5040713;28;20070;-63
2022/08/26 12:02:50;;;;;;;10.52;4.63;;;;;;;28.74;40.30;96958.28;5042702;28;19932;-62